sensor_id;sensor_type;location;lat;lon;timestamp;P1;durP1;ratioP1;P2;durP2;ratioP2
20283;SDS011;10301;50.832;4.080;2022-10-22T00:02:07;11.63;;;1.95;;
20283;SDS011;10301;50.832;4.080;2022-10-22T00:04:32;8.95;;;2.15;;
20283;SDS011;10301;50.832;4.080;2022-10-22T00:06:58;10.32;;;2.25;;
20283;SDS011;10301;50.832;4.080;2022-10-22T00:09:24;7.85;;;2.20;;
20283;SDS011;10301;50.832;4.080;2022-10-22T00:11:50;11.27;;;2.50;;
20283;SDS011;10301;50.832;4.080;2022-10-22T00:14:16;11.48;;;2.38;;
20283;SDS011;10301;50.832;4.080;2022-10-22T00:16:42;9.93;;;2.22;;
20283;SDS011;10301;50.832;4.080;2022-10-22T00:19:07;10.73;;;2.08;;
20283;SDS011;10301;50.832;4.080;2022-10-22T00:21:33;8.18;;;2.05;;
20283;SDS011;10301;50.832;4.080;2022-10-22T00:24:00;10.57;;;2.10;;
20283;SDS011;10301;50.832;4.080;2022-10-22T00:26:26;13.40;;;2.17;;
20283;SDS011;10301;50.832;4.080;2022-10-22T00:28:52;10.77;;;2.42;;
20283;SDS011;10301;50.832;4.080;2022-10-22T00:31:18;14.57;;;2.40;;
20283;SDS011;10301;50.832;4.080;2022-10-22T00:33:45;11.27;;;2.40;;
20283;SDS011;10301;50.832;4.080;2022-10-22T00:36:11;12.20;;;2.45;;
20283;SDS011;10301;50.832;4.080;2022-10-22T00:38:38;8.73;;;2.78;;
20283;SDS011;10301;50.832;4.080;2022-10-22T00:41:03;8.45;;;2.30;;
20283;SDS011;10301;50.832;4.080;2022-10-22T00:43:29;9.55;;;2.17;;
20283;SDS011;10301;50.832;4.080;2022-10-22T00:45:55;9.10;;;2.10;;
20283;SDS011;10301;50.832;4.080;2022-10-22T00:48:22;12.80;;;2.20;;
20283;SDS011;10301;50.832;4.080;2022-10-22T00:50:55;7.93;;;2.25;;
20283;SDS011;10301;50.832;4.080;2022-10-22T00:53:35;8.48;;;2.00;;
20283;SDS011;10301;50.832;4.080;2022-10-22T00:56:03;7.90;;;2.28;;
20283;SDS011;10301;50.832;4.080;2022-10-22T00:58:32;10.82;;;2.20;;
20283;SDS011;10301;50.832;4.080;2022-10-22T01:01:03;8.93;;;2.33;;
20283;SDS011;10301;50.832;4.080;2022-10-22T01:03:30;10.73;;;2.58;;
20283;SDS011;10301;50.832;4.080;2022-10-22T01:05:59;16.02;;;2.38;;
20283;SDS011;10301;50.832;4.080;2022-10-22T01:19:35;11.10;;;2.55;;
20283;SDS011;10301;50.832;4.080;2022-10-22T01:22:28;9.32;;;2.40;;
20283;SDS011;10301;50.832;4.080;2022-10-22T01:27:52;9.45;;;2.50;;
20283;SDS011;10301;50.832;4.080;2022-10-22T01:30:20;10.43;;;2.28;;
20283;SDS011;10301;50.832;4.080;2022-10-22T01:32:51;10.13;;;2.40;;
20283;SDS011;10301;50.832;4.080;2022-10-22T01:35:23;10.77;;;2.75;;
20283;SDS011;10301;50.832;4.080;2022-10-22T01:37:53;8.73;;;2.53;;
20283;SDS011;10301;50.832;4.080;2022-10-22T01:40:22;10.00;;;2.85;;
20283;SDS011;10301;50.832;4.080;2022-10-22T01:42:55;8.45;;;2.78;;
20283;SDS011;10301;50.832;4.080;2022-10-22T01:45:21;13.73;;;2.58;;
20283;SDS011;10301;50.832;4.080;2022-10-22T01:47:52;9.88;;;2.15;;
20283;SDS011;10301;50.832;4.080;2022-10-22T01:50:36;13.07;;;2.78;;
20283;SDS011;10301;50.832;4.080;2022-10-22T01:55:52;11.68;;;2.40;;
20283;SDS011;10301;50.832;4.080;2022-10-22T02:01:06;10.13;;;2.42;;
20283;SDS011;10301;50.832;4.080;2022-10-22T02:03:42;10.10;;;2.25;;
20283;SDS011;10301;50.832;4.080;2022-10-22T02:06:13;9.13;;;2.42;;
20283;SDS011;10301;50.832;4.080;2022-10-22T02:08:43;13.20;;;2.33;;
20283;SDS011;10301;50.832;4.080;2022-10-22T02:11:11;12.00;;;4.57;;
20283;SDS011;10301;50.832;4.080;2022-10-22T02:13:44;14.07;;;2.60;;
20283;SDS011;10301;50.832;4.080;2022-10-22T02:16:47;15.02;;;2.88;;
20283;SDS011;10301;50.832;4.080;2022-10-22T02:19:14;9.88;;;2.53;;
20283;SDS011;10301;50.832;4.080;2022-10-22T02:21:49;17.08;;;2.47;;
20283;SDS011;10301;50.832;4.080;2022-10-22T02:24:16;12.35;;;2.67;;
20283;SDS011;10301;50.832;4.080;2022-10-22T02:26:47;13.80;;;2.88;;
20283;SDS011;10301;50.832;4.080;2022-10-22T02:29:38;14.07;;;2.67;;
20283;SDS011;10301;50.832;4.080;2022-10-22T02:32:10;11.05;;;3.05;;
20283;SDS011;10301;50.832;4.080;2022-10-22T02:34:40;14.73;;;2.67;;
20283;SDS011;10301;50.832;4.080;2022-10-22T02:37:06;10.10;;;2.45;;
20283;SDS011;10301;50.832;4.080;2022-10-22T02:39:33;15.13;;;2.92;;
20283;SDS011;10301;50.832;4.080;2022-10-22T02:42:00;7.80;;;2.38;;
20283;SDS011;10301;50.832;4.080;2022-10-22T02:44:26;11.85;;;2.97;;
20283;SDS011;10301;50.832;4.080;2022-10-22T02:46:52;8.60;;;2.50;;
20283;SDS011;10301;50.832;4.080;2022-10-22T02:49:18;10.55;;;2.42;;
20283;SDS011;10301;50.832;4.080;2022-10-22T02:51:43;9.55;;;2.50;;
20283;SDS011;10301;50.832;4.080;2022-10-22T02:54:09;8.57;;;2.30;;
20283;SDS011;10301;50.832;4.080;2022-10-22T02:56:35;11.57;;;2.75;;
20283;SDS011;10301;50.832;4.080;2022-10-22T02:59:00;9.20;;;2.30;;
20283;SDS011;10301;50.832;4.080;2022-10-22T03:01:26;9.82;;;2.20;;
20283;SDS011;10301;50.832;4.080;2022-10-22T03:03:52;12.50;;;2.40;;
20283;SDS011;10301;50.832;4.080;2022-10-22T03:06:17;8.60;;;2.15;;
20283;SDS011;10301;50.832;4.080;2022-10-22T03:08:43;11.23;;;2.67;;
20283;SDS011;10301;50.832;4.080;2022-10-22T03:11:09;10.70;;;2.20;;
20283;SDS011;10301;50.832;4.080;2022-10-22T03:13:34;9.88;;;2.42;;
20283;SDS011;10301;50.832;4.080;2022-10-22T03:16:00;11.02;;;2.45;;
20283;SDS011;10301;50.832;4.080;2022-10-22T03:18:26;12.60;;;2.38;;
20283;SDS011;10301;50.832;4.080;2022-10-22T03:21:16;6.80;;;1.75;;
20283;SDS011;10301;50.832;4.080;2022-10-22T03:23:39;12.60;;;2.70;;
20283;SDS011;10301;50.832;4.080;2022-10-22T03:26:07;13.25;;;2.65;;
20283;SDS011;10301;50.832;4.080;2022-10-22T03:28:35;11.88;;;2.20;;
20283;SDS011;10301;50.832;4.080;2022-10-22T03:31:01;8.55;;;2.28;;
20283;SDS011;10301;50.832;4.080;2022-10-22T03:33:27;14.32;;;1.77;;
20283;SDS011;10301;50.832;4.080;2022-10-22T03:35:52;9.52;;;2.28;;
20283;SDS011;10301;50.832;4.080;2022-10-22T03:38:18;9.82;;;2.45;;
20283;SDS011;10301;50.832;4.080;2022-10-22T03:40:43;9.15;;;1.90;;
20283;SDS011;10301;50.832;4.080;2022-10-22T03:43:10;7.93;;;2.10;;
20283;SDS011;10301;50.832;4.080;2022-10-22T03:45:36;10.80;;;2.08;;
20283;SDS011;10301;50.832;4.080;2022-10-22T03:48:02;11.23;;;1.98;;
20283;SDS011;10301;50.832;4.080;2022-10-22T03:50:27;8.65;;;2.20;;
20283;SDS011;10301;50.832;4.080;2022-10-22T03:52:53;8.02;;;2.17;;
20283;SDS011;10301;50.832;4.080;2022-10-22T03:55:19;10.48;;;1.83;;
20283;SDS011;10301;50.832;4.080;2022-10-22T03:57:44;10.65;;;2.03;;
20283;SDS011;10301;50.832;4.080;2022-10-22T04:00:10;11.77;;;1.67;;
20283;SDS011;10301;50.832;4.080;2022-10-22T04:02:36;8.48;;;1.80;;
20283;SDS011;10301;50.832;4.080;2022-10-22T04:05:01;9.68;;;2.10;;
20283;SDS011;10301;50.832;4.080;2022-10-22T04:07:27;10.32;;;2.00;;
20283;SDS011;10301;50.832;4.080;2022-10-22T04:09:53;10.20;;;2.25;;
20283;SDS011;10301;50.832;4.080;2022-10-22T04:12:18;11.10;;;1.98;;
20283;SDS011;10301;50.832;4.080;2022-10-22T04:14:44;16.95;;;2.38;;
20283;SDS011;10301;50.832;4.080;2022-10-22T04:17:09;7.95;;;1.80;;
20283;SDS011;10301;50.832;4.080;2022-10-22T04:19:35;12.43;;;2.08;;
20283;SDS011;10301;50.832;4.080;2022-10-22T04:22:01;8.55;;;1.75;;
20283;SDS011;10301;50.832;4.080;2022-10-22T04:24:26;8.95;;;1.80;;
20283;SDS011;10301;50.832;4.080;2022-10-22T04:26:54;11.35;;;1.70;;
20283;SDS011;10301;50.832;4.080;2022-10-22T04:29:19;9.02;;;2.10;;
20283;SDS011;10301;50.832;4.080;2022-10-22T04:31:45;12.90;;;2.20;;
20283;SDS011;10301;50.832;4.080;2022-10-22T04:34:11;8.75;;;1.95;;
20283;SDS011;10301;50.832;4.080;2022-10-22T04:36:36;5.82;;;1.70;;
20283;SDS011;10301;50.832;4.080;2022-10-22T04:39:02;10.95;;;2.05;;
20283;SDS011;10301;50.832;4.080;2022-10-22T04:41:30;10.57;;;2.00;;
20283;SDS011;10301;50.832;4.080;2022-10-22T04:43:58;8.48;;;1.70;;
20283;SDS011;10301;50.832;4.080;2022-10-22T04:46:25;13.80;;;2.50;;
20283;SDS011;10301;50.832;4.080;2022-10-22T04:48:54;6.75;;;1.60;;
20283;SDS011;10301;50.832;4.080;2022-10-22T04:51:20;9.88;;;1.88;;
20283;SDS011;10301;50.832;4.080;2022-10-22T04:53:47;11.80;;;2.10;;
20283;SDS011;10301;50.832;4.080;2022-10-22T04:58:41;9.20;;;1.92;;
20283;SDS011;10301;50.832;4.080;2022-10-22T05:01:08;9.10;;;1.65;;
20283;SDS011;10301;50.832;4.080;2022-10-22T05:03:38;6.60;;;1.67;;
20283;SDS011;10301;50.832;4.080;2022-10-22T05:06:05;9.73;;;1.58;;
20283;SDS011;10301;50.832;4.080;2022-10-22T05:08:31;9.07;;;1.63;;
20283;SDS011;10301;50.832;4.080;2022-10-22T05:10:57;7.22;;;1.85;;
20283;SDS011;10301;50.832;4.080;2022-10-22T05:13:22;7.68;;;1.73;;
20283;SDS011;10301;50.832;4.080;2022-10-22T05:15:48;7.65;;;1.70;;
20283;SDS011;10301;50.832;4.080;2022-10-22T05:18:14;10.02;;;1.70;;
20283;SDS011;10301;50.832;4.080;2022-10-22T05:20:39;9.65;;;1.90;;
20283;SDS011;10301;50.832;4.080;2022-10-22T05:23:06;6.82;;;1.80;;
20283;SDS011;10301;50.832;4.080;2022-10-22T05:25:35;9.18;;;1.92;;
20283;SDS011;10301;50.832;4.080;2022-10-22T05:28:02;9.02;;;1.67;;
20283;SDS011;10301;50.832;4.080;2022-10-22T05:30:28;14.52;;;2.15;;
20283;SDS011;10301;50.832;4.080;2022-10-22T05:32:53;9.80;;;1.90;;
20283;SDS011;10301;50.832;4.080;2022-10-22T05:35:19;8.63;;;1.85;;
20283;SDS011;10301;50.832;4.080;2022-10-22T05:37:44;13.18;;;2.28;;
20283;SDS011;10301;50.832;4.080;2022-10-22T05:40:10;8.45;;;1.98;;
20283;SDS011;10301;50.832;4.080;2022-10-22T05:42:36;9.50;;;1.90;;
20283;SDS011;10301;50.832;4.080;2022-10-22T05:45:01;13.40;;;2.58;;
20283;SDS011;10301;50.832;4.080;2022-10-22T05:47:28;12.30;;;1.77;;
20283;SDS011;10301;50.832;4.080;2022-10-22T05:49:54;9.30;;;1.42;;
20283;SDS011;10301;50.832;4.080;2022-10-22T05:52:21;14.45;;;2.53;;
20283;SDS011;10301;50.832;4.080;2022-10-22T05:54:47;10.13;;;1.83;;
20283;SDS011;10301;50.832;4.080;2022-10-22T05:57:13;8.43;;;2.47;;
20283;SDS011;10301;50.832;4.080;2022-10-22T05:59:39;10.70;;;1.50;;
20283;SDS011;10301;50.832;4.080;2022-10-22T06:02:04;9.93;;;2.20;;
20283;SDS011;10301;50.832;4.080;2022-10-22T06:04:30;9.50;;;2.65;;
20283;SDS011;10301;50.832;4.080;2022-10-22T06:06:56;13.45;;;1.88;;
20283;SDS011;10301;50.832;4.080;2022-10-22T06:09:23;9.77;;;1.98;;
20283;SDS011;10301;50.832;4.080;2022-10-22T06:11:52;6.45;;;1.58;;
20283;SDS011;10301;50.832;4.080;2022-10-22T06:14:19;6.85;;;1.60;;
20283;SDS011;10301;50.832;4.080;2022-10-22T06:16:45;8.98;;;2.28;;
20283;SDS011;10301;50.832;4.080;2022-10-22T06:19:13;13.10;;;2.13;;
20283;SDS011;10301;50.832;4.080;2022-10-22T06:21:40;7.00;;;1.60;;
20283;SDS011;10301;50.832;4.080;2022-10-22T06:24:07;9.88;;;2.10;;
20283;SDS011;10301;50.832;4.080;2022-10-22T06:26:34;14.75;;;2.10;;
20283;SDS011;10301;50.832;4.080;2022-10-22T06:29:00;8.77;;;1.38;;
20283;SDS011;10301;50.832;4.080;2022-10-22T06:31:26;13.88;;;2.38;;
20283;SDS011;10301;50.832;4.080;2022-10-22T06:33:52;14.27;;;2.38;;
20283;SDS011;10301;50.832;4.080;2022-10-22T06:36:19;7.85;;;1.55;;
20283;SDS011;10301;50.832;4.080;2022-10-22T06:38:46;12.90;;;2.15;;
20283;SDS011;10301;50.832;4.080;2022-10-22T06:41:15;9.10;;;1.80;;
20283;SDS011;10301;50.832;4.080;2022-10-22T06:43:41;13.63;;;2.28;;
20283;SDS011;10301;50.832;4.080;2022-10-22T06:46:13;11.52;;;1.83;;
20283;SDS011;10301;50.832;4.080;2022-10-22T06:48:40;9.20;;;1.95;;
20283;SDS011;10301;50.832;4.080;2022-10-22T06:51:07;9.05;;;2.13;;
20283;SDS011;10301;50.832;4.080;2022-10-22T06:53:35;10.55;;;2.22;;
20283;SDS011;10301;50.832;4.080;2022-10-22T06:56:05;13.05;;;2.05;;
20283;SDS011;10301;50.832;4.080;2022-10-22T06:58:35;9.82;;;1.95;;
20283;SDS011;10301;50.832;4.080;2022-10-22T07:01:05;10.02;;;1.65;;
20283;SDS011;10301;50.832;4.080;2022-10-22T07:03:41;6.78;;;1.80;;
20283;SDS011;10301;50.832;4.080;2022-10-22T07:06:08;8.32;;;1.77;;
20283;SDS011;10301;50.832;4.080;2022-10-22T07:08:35;11.60;;;1.90;;
20283;SDS011;10301;50.832;4.080;2022-10-22T07:11:06;8.80;;;2.03;;
20283;SDS011;10301;50.832;4.080;2022-10-22T07:13:33;8.57;;;1.67;;
20283;SDS011;10301;50.832;4.080;2022-10-22T07:15:58;8.95;;;2.00;;
20283;SDS011;10301;50.832;4.080;2022-10-22T07:18:24;11.45;;;2.25;;
20283;SDS011;10301;50.832;4.080;2022-10-22T07:20:50;8.73;;;1.88;;
20283;SDS011;10301;50.832;4.080;2022-10-22T07:23:16;8.50;;;2.10;;
20283;SDS011;10301;50.832;4.080;2022-10-22T07:25:41;10.10;;;2.10;;
20283;SDS011;10301;50.832;4.080;2022-10-22T07:28:07;13.38;;;2.60;;
20283;SDS011;10301;50.832;4.080;2022-10-22T07:30:33;11.77;;;2.45;;
20283;SDS011;10301;50.832;4.080;2022-10-22T07:33:00;10.73;;;1.88;;
20283;SDS011;10301;50.832;4.080;2022-10-22T07:35:25;12.63;;;2.00;;
20283;SDS011;10301;50.832;4.080;2022-10-22T07:37:51;17.55;;;2.20;;
20283;SDS011;10301;50.832;4.080;2022-10-22T07:40:16;10.75;;;1.80;;
20283;SDS011;10301;50.832;4.080;2022-10-22T07:42:42;7.97;;;2.10;;
20283;SDS011;10301;50.832;4.080;2022-10-22T07:45:08;10.50;;;2.05;;
20283;SDS011;10301;50.832;4.080;2022-10-22T07:47:33;10.18;;;1.70;;
20283;SDS011;10301;50.832;4.080;2022-10-22T07:49:59;12.70;;;2.33;;
20283;SDS011;10301;50.832;4.080;2022-10-22T07:52:25;9.52;;;1.92;;
20283;SDS011;10301;50.832;4.080;2022-10-22T07:54:51;12.00;;;2.13;;
20283;SDS011;10301;50.832;4.080;2022-10-22T07:57:17;7.75;;;2.35;;
20283;SDS011;10301;50.832;4.080;2022-10-22T07:59:42;12.95;;;2.55;;
20283;SDS011;10301;50.832;4.080;2022-10-22T08:02:08;10.85;;;2.42;;
20283;SDS011;10301;50.832;4.080;2022-10-22T08:04:36;11.75;;;2.40;;
20283;SDS011;10301;50.832;4.080;2022-10-22T08:07:01;10.68;;;2.42;;
20283;SDS011;10301;50.832;4.080;2022-10-22T08:09:27;10.30;;;2.30;;
20283;SDS011;10301;50.832;4.080;2022-10-22T08:11:53;9.27;;;1.92;;
20283;SDS011;10301;50.832;4.080;2022-10-22T08:14:18;9.88;;;2.40;;
20283;SDS011;10301;50.832;4.080;2022-10-22T08:16:44;9.40;;;2.05;;
20283;SDS011;10301;50.832;4.080;2022-10-22T08:19:10;9.98;;;1.75;;
20283;SDS011;10301;50.832;4.080;2022-10-22T08:21:37;10.52;;;2.13;;
20283;SDS011;10301;50.832;4.080;2022-10-22T08:24:03;10.20;;;1.50;;
20283;SDS011;10301;50.832;4.080;2022-10-22T08:26:29;6.47;;;1.60;;
20283;SDS011;10301;50.832;4.080;2022-10-22T08:28:55;13.88;;;2.17;;
20283;SDS011;10301;50.832;4.080;2022-10-22T08:31:21;12.00;;;2.10;;
20283;SDS011;10301;50.832;4.080;2022-10-22T08:33:46;10.90;;;1.75;;
20283;SDS011;10301;50.832;4.080;2022-10-22T08:36:12;10.00;;;2.60;;
20283;SDS011;10301;50.832;4.080;2022-10-22T08:38:38;9.68;;;1.75;;
20283;SDS011;10301;50.832;4.080;2022-10-22T08:41:19;11.30;;;2.45;;
20283;SDS011;10301;50.832;4.080;2022-10-22T08:48:54;8.27;;;1.80;;
20283;SDS011;10301;50.832;4.080;2022-10-22T08:51:26;10.18;;;1.90;;
20283;SDS011;10301;50.832;4.080;2022-10-22T08:56:52;10.35;;;2.33;;
20283;SDS011;10301;50.832;4.080;2022-10-22T08:59:27;11.95;;;1.88;;
20283;SDS011;10301;50.832;4.080;2022-10-22T09:02:01;11.50;;;1.95;;
20283;SDS011;10301;50.832;4.080;2022-10-22T09:04:39;12.73;;;2.10;;
20283;SDS011;10301;50.832;4.080;2022-10-22T09:07:12;11.65;;;2.30;;
20283;SDS011;10301;50.832;4.080;2022-10-22T09:09:39;8.55;;;2.03;;
20283;SDS011;10301;50.832;4.080;2022-10-22T09:12:13;10.85;;;2.80;;
20283;SDS011;10301;50.832;4.080;2022-10-22T09:14:41;14.30;;;2.83;;
20283;SDS011;10301;50.832;4.080;2022-10-22T09:17:11;15.10;;;2.10;;
20283;SDS011;10301;50.832;4.080;2022-10-22T09:24:52;8.55;;;1.67;;
20283;SDS011;10301;50.832;4.080;2022-10-22T09:27:27;11.00;;;1.77;;
20283;SDS011;10301;50.832;4.080;2022-10-22T09:29:54;13.25;;;2.60;;
20283;SDS011;10301;50.832;4.080;2022-10-22T09:32:20;10.23;;;2.22;;
20283;SDS011;10301;50.832;4.080;2022-10-22T09:34:46;10.45;;;2.08;;
20283;SDS011;10301;50.832;4.080;2022-10-22T09:37:16;13.27;;;2.15;;
20283;SDS011;10301;50.832;4.080;2022-10-22T09:39:44;8.73;;;2.60;;
20283;SDS011;10301;50.832;4.080;2022-10-22T09:42:16;8.15;;;1.83;;
20283;SDS011;10301;50.832;4.080;2022-10-22T09:44:43;10.70;;;2.00;;
20283;SDS011;10301;50.832;4.080;2022-10-22T09:50:26;11.50;;;2.20;;
20283;SDS011;10301;50.832;4.080;2022-10-22T09:53:17;9.85;;;2.90;;
20283;SDS011;10301;50.832;4.080;2022-10-22T09:55:43;8.50;;;2.08;;
20283;SDS011;10301;50.832;4.080;2022-10-22T09:58:16;11.77;;;2.10;;
20283;SDS011;10301;50.832;4.080;2022-10-22T10:00:44;9.55;;;2.10;;
20283;SDS011;10301;50.832;4.080;2022-10-22T10:03:16;8.60;;;2.10;;
20283;SDS011;10301;50.832;4.080;2022-10-22T10:05:49;10.23;;;2.03;;
20283;SDS011;10301;50.832;4.080;2022-10-22T10:08:17;12.90;;;2.20;;
20283;SDS011;10301;50.832;4.080;2022-10-22T10:15:53;9.85;;;2.17;;
20283;SDS011;10301;50.832;4.080;2022-10-22T10:18:45;10.00;;;2.35;;
20283;SDS011;10301;50.832;4.080;2022-10-22T10:23:55;8.93;;;2.15;;
20283;SDS011;10301;50.832;4.080;2022-10-22T10:34:51;11.65;;;2.17;;
20283;SDS011;10301;50.832;4.080;2022-10-22T10:37:29;11.98;;;1.92;;
20283;SDS011;10301;50.832;4.080;2022-10-22T10:50:50;9.93;;;1.75;;
20283;SDS011;10301;50.832;4.080;2022-10-22T10:58:49;8.32;;;1.77;;
20283;SDS011;10301;50.832;4.080;2022-10-22T11:01:36;7.75;;;1.50;;
20283;SDS011;10301;50.832;4.080;2022-10-22T11:04:07;7.50;;;1.58;;
20283;SDS011;10301;50.832;4.080;2022-10-22T11:07:05;7.60;;;1.45;;
20283;SDS011;10301;50.832;4.080;2022-10-22T11:09:38;10.52;;;2.20;;
20283;SDS011;10301;50.832;4.080;2022-10-22T11:12:11;10.75;;;1.83;;
20283;SDS011;10301;50.832;4.080;2022-10-22T11:14:58;10.77;;;1.92;;
20283;SDS011;10301;50.832;4.080;2022-10-22T11:17:31;7.80;;;1.88;;
20283;SDS011;10301;50.832;4.080;2022-10-22T11:26:09;7.85;;;1.90;;
20283;SDS011;10301;50.832;4.080;2022-10-22T11:28:49;11.90;;;2.05;;
20283;SDS011;10301;50.832;4.080;2022-10-22T11:31:18;8.10;;;1.60;;
20283;SDS011;10301;50.832;4.080;2022-10-22T11:36:35;7.05;;;1.50;;
20283;SDS011;10301;50.832;4.080;2022-10-22T11:39:02;10.40;;;2.30;;
20283;SDS011;10301;50.832;4.080;2022-10-22T11:41:29;8.60;;;1.55;;
20283;SDS011;10301;50.832;4.080;2022-10-22T11:44:08;9.98;;;1.95;;
20283;SDS011;10301;50.832;4.080;2022-10-22T11:49:24;10.05;;;1.73;;
20283;SDS011;10301;50.832;4.080;2022-10-22T11:55:00;9.63;;;1.60;;
20283;SDS011;10301;50.832;4.080;2022-10-22T11:57:37;6.20;;;1.42;;
20283;SDS011;10301;50.832;4.080;2022-10-22T12:00:20;5.63;;;1.35;;
20283;SDS011;10301;50.832;4.080;2022-10-22T12:03:22;5.38;;;1.48;;
20283;SDS011;10301;50.832;4.080;2022-10-22T12:16:27;8.25;;;1.73;;
20283;SDS011;10301;50.832;4.080;2022-10-22T12:19:05;5.80;;;1.23;;
20283;SDS011;10301;50.832;4.080;2022-10-22T12:21:51;6.57;;;1.15;;
20283;SDS011;10301;50.832;4.080;2022-10-22T12:24:20;9.80;;;1.60;;
20283;SDS011;10301;50.832;4.080;2022-10-22T12:26:47;11.98;;;1.98;;
20283;SDS011;10301;50.832;4.080;2022-10-22T12:29:16;7.53;;;1.50;;
20283;SDS011;10301;50.832;4.080;2022-10-22T12:31:45;10.32;;;1.45;;
20283;SDS011;10301;50.832;4.080;2022-10-22T12:34:18;10.43;;;1.73;;
20283;SDS011;10301;50.832;4.080;2022-10-22T12:36:47;6.07;;;1.25;;
20283;SDS011;10301;50.832;4.080;2022-10-22T12:39:17;7.80;;;1.30;;
20283;SDS011;10301;50.832;4.080;2022-10-22T12:41:44;8.20;;;1.52;;
20283;SDS011;10301;50.832;4.080;2022-10-22T12:44:11;7.88;;;1.38;;
20283;SDS011;10301;50.832;4.080;2022-10-22T12:46:41;8.63;;;1.63;;
20283;SDS011;10301;50.832;4.080;2022-10-22T12:49:18;7.20;;;2.10;;
20283;SDS011;10301;50.832;4.080;2022-10-22T12:51:46;10.23;;;1.70;;
20283;SDS011;10301;50.832;4.080;2022-10-22T12:54:30;8.27;;;1.50;;
20283;SDS011;10301;50.832;4.080;2022-10-22T12:56:58;6.72;;;1.25;;
20283;SDS011;10301;50.832;4.080;2022-10-22T13:01:56;6.68;;;1.30;;
20283;SDS011;10301;50.832;4.080;2022-10-22T13:09:46;6.38;;;1.58;;
20283;SDS011;10301;50.832;4.080;2022-10-22T13:12:25;7.25;;;1.13;;
20283;SDS011;10301;50.832;4.080;2022-10-22T13:14:52;9.57;;;1.67;;
20283;SDS011;10301;50.832;4.080;2022-10-22T13:17:19;7.63;;;1.70;;
20283;SDS011;10301;50.832;4.080;2022-10-22T13:20:02;6.72;;;1.10;;
20283;SDS011;10301;50.832;4.080;2022-10-22T13:22:38;7.28;;;1.02;;
20283;SDS011;10301;50.832;4.080;2022-10-22T13:27:54;9.50;;;1.52;;
20283;SDS011;10301;50.832;4.080;2022-10-22T13:30:26;7.68;;;1.63;;
20283;SDS011;10301;50.832;4.080;2022-10-22T13:33:40;9.10;;;1.85;;
20283;SDS011;10301;50.832;4.080;2022-10-22T13:35:50;6.70;;;1.40;;
20283;SDS011;10301;50.832;4.080;2022-10-22T13:38:20;7.43;;;1.40;;
20283;SDS011;10301;50.832;4.080;2022-10-22T13:40:47;9.65;;;1.50;;
20283;SDS011;10301;50.832;4.080;2022-10-22T13:43:13;7.70;;;1.83;;
20283;SDS011;10301;50.832;4.080;2022-10-22T13:45:40;8.30;;;1.58;;
20283;SDS011;10301;50.832;4.080;2022-10-22T13:48:07;6.28;;;1.30;;
20283;SDS011;10301;50.832;4.080;2022-10-22T13:50:38;6.93;;;1.30;;
20283;SDS011;10301;50.832;4.080;2022-10-22T13:53:04;7.55;;;1.35;;
20283;SDS011;10301;50.832;4.080;2022-10-22T13:55:34;7.32;;;1.65;;
20283;SDS011;10301;50.832;4.080;2022-10-22T13:58:02;8.07;;;1.88;;
20283;SDS011;10301;50.832;4.080;2022-10-22T14:00:35;7.70;;;1.50;;
20283;SDS011;10301;50.832;4.080;2022-10-22T14:03:02;8.43;;;1.63;;
20283;SDS011;10301;50.832;4.080;2022-10-22T14:05:29;10.45;;;1.67;;
20283;SDS011;10301;50.832;4.080;2022-10-22T14:07:58;9.90;;;2.08;;
20283;SDS011;10301;50.832;4.080;2022-10-22T14:10:24;13.60;;;2.05;;
20283;SDS011;10301;50.832;4.080;2022-10-22T14:12:50;6.75;;;1.38;;
20283;SDS011;10301;50.832;4.080;2022-10-22T14:15:17;8.93;;;1.67;;
20283;SDS011;10301;50.832;4.080;2022-10-22T14:17:52;10.50;;;1.80;;
20283;SDS011;10301;50.832;4.080;2022-10-22T14:20:22;9.45;;;1.63;;
20283;SDS011;10301;50.832;4.080;2022-10-22T14:22:50;11.63;;;1.83;;
20283;SDS011;10301;50.832;4.080;2022-10-22T14:25:17;7.10;;;1.42;;
20283;SDS011;10301;50.832;4.080;2022-10-22T14:27:44;9.02;;;2.08;;
20283;SDS011;10301;50.832;4.080;2022-10-22T14:30:18;7.63;;;1.35;;
20283;SDS011;10301;50.832;4.080;2022-10-22T14:32:45;7.25;;;1.70;;
20283;SDS011;10301;50.832;4.080;2022-10-22T14:35:13;7.05;;;1.45;;
20283;SDS011;10301;50.832;4.080;2022-10-22T14:37:40;7.60;;;1.58;;
20283;SDS011;10301;50.832;4.080;2022-10-22T14:40:07;9.70;;;1.63;;
20283;SDS011;10301;50.832;4.080;2022-10-22T14:42:36;6.18;;;1.58;;
20283;SDS011;10301;50.832;4.080;2022-10-22T14:45:05;8.80;;;1.65;;
20283;SDS011;10301;50.832;4.080;2022-10-22T14:47:36;10.38;;;1.85;;
20283;SDS011;10301;50.832;4.080;2022-10-22T14:50:02;9.02;;;1.95;;
20283;SDS011;10301;50.832;4.080;2022-10-22T14:52:28;10.40;;;1.67;;
20283;SDS011;10301;50.832;4.080;2022-10-22T14:54:53;9.13;;;1.70;;
20283;SDS011;10301;50.832;4.080;2022-10-22T14:57:19;8.02;;;1.73;;
20283;SDS011;10301;50.832;4.080;2022-10-22T14:59:44;8.13;;;1.40;;
20283;SDS011;10301;50.832;4.080;2022-10-22T15:02:11;8.48;;;1.50;;
20283;SDS011;10301;50.832;4.080;2022-10-22T15:04:37;10.40;;;1.58;;
20283;SDS011;10301;50.832;4.080;2022-10-22T15:07:03;7.28;;;1.70;;
20283;SDS011;10301;50.832;4.080;2022-10-22T15:09:29;8.18;;;1.55;;
20283;SDS011;10301;50.832;4.080;2022-10-22T15:11:55;8.70;;;2.13;;
20283;SDS011;10301;50.832;4.080;2022-10-22T15:14:21;9.25;;;1.45;;
20283;SDS011;10301;50.832;4.080;2022-10-22T15:16:46;11.48;;;1.95;;
20283;SDS011;10301;50.832;4.080;2022-10-22T15:19:12;6.07;;;1.67;;
20283;SDS011;10301;50.832;4.080;2022-10-22T15:21:38;8.55;;;2.03;;
20283;SDS011;10301;50.832;4.080;2022-10-22T15:24:04;7.03;;;1.30;;
20283;SDS011;10301;50.832;4.080;2022-10-22T15:26:30;10.43;;;1.65;;
20283;SDS011;10301;50.832;4.080;2022-10-22T15:28:55;6.18;;;1.90;;
20283;SDS011;10301;50.832;4.080;2022-10-22T15:31:41;10.95;;;2.08;;
20283;SDS011;10301;50.832;4.080;2022-10-22T15:34:18;11.63;;;4.35;;
20283;SDS011;10301;50.832;4.080;2022-10-22T15:36:45;17.40;;;7.80;;
20283;SDS011;10301;50.832;4.080;2022-10-22T15:39:11;10.38;;;3.70;;
20283;SDS011;10301;50.832;4.080;2022-10-22T15:41:36;26.33;;;13.10;;
20283;SDS011;10301;50.832;4.080;2022-10-22T15:44:02;15.48;;;7.65;;
20283;SDS011;10301;50.832;4.080;2022-10-22T15:46:30;18.42;;;6.40;;
20283;SDS011;10301;50.832;4.080;2022-10-22T15:48:56;8.23;;;2.20;;
20283;SDS011;10301;50.832;4.080;2022-10-22T15:51:22;10.18;;;1.85;;
20283;SDS011;10301;50.832;4.080;2022-10-22T15:53:56;6.80;;;2.42;;
20283;SDS011;10301;50.832;4.080;2022-10-22T15:56:23;12.07;;;5.05;;
20283;SDS011;10301;50.832;4.080;2022-10-22T15:58:51;13.82;;;5.30;;
20283;SDS011;10301;50.832;4.080;2022-10-22T16:01:21;13.93;;;4.82;;
20283;SDS011;10301;50.832;4.080;2022-10-22T16:03:48;10.05;;;4.40;;
20283;SDS011;10301;50.832;4.080;2022-10-22T16:06:17;7.40;;;2.08;;
20283;SDS011;10301;50.832;4.080;2022-10-22T16:08:43;5.95;;;1.80;;
20283;SDS011;10301;50.832;4.080;2022-10-22T16:11:09;10.65;;;1.42;;
20283;SDS011;10301;50.832;4.080;2022-10-22T16:13:35;12.00;;;4.43;;
20283;SDS011;10301;50.832;4.080;2022-10-22T16:16:03;11.18;;;4.60;;
20283;SDS011;10301;50.832;4.080;2022-10-22T16:18:31;14.25;;;5.93;;
20283;SDS011;10301;50.832;4.080;2022-10-22T16:20:57;11.40;;;3.72;;
20283;SDS011;10301;50.832;4.080;2022-10-22T16:23:23;11.70;;;2.17;;
20283;SDS011;10301;50.832;4.080;2022-10-22T16:25:48;16.20;;;7.85;;
20283;SDS011;10301;50.832;4.080;2022-10-22T16:28:14;13.20;;;6.18;;
20283;SDS011;10301;50.832;4.080;2022-10-22T16:30:40;10.07;;;4.25;;
20283;SDS011;10301;50.832;4.080;2022-10-22T16:33:06;10.45;;;2.50;;
20283;SDS011;10301;50.832;4.080;2022-10-22T16:35:38;11.73;;;2.13;;
20283;SDS011;10301;50.832;4.080;2022-10-22T16:38:07;11.32;;;2.38;;